Time;durP1;ratioP1;P1;durP2;ratioP2;P2;SDS_P1;SDS_P2;PMS_P1;PMS_P2;Temp;Humidity;BMP_temperature;BMP_pressure;BME280_temperature;BME280_humidity;BME280_pressure;Samples;Min_cycle;Max_cycle;Signal;HPM_P1;HPM_P2
2022/09/28 00:00:36;;;;;;;1.17;1.03;;;8.20;99.90;;;;;;4219014;28;21071;-75
2022/09/28 00:02:39;;;;;;;1.87;1.33;;;8.10;99.90;;;;;;4218529;28;20462;-75
2022/09/28 00:04:42;;;;;;;2.60;1.27;;;8.10;99.90;;;;;;4212959;28;20471;-75
2022/09/28 00:06:45;;;;;;;1.60;1.17;;;8.10;99.90;;;;;;4217477;28;20471;-75
2022/09/28 00:08:48;;;;;;;1.87;1.30;;;8.10;99.90;;;;;;4215857;28;21041;-77
2022/09/28 00:10:55;;;;;;;1.30;1.10;;;8.00;99.90;;;;;;4221863;28;20460;-76
2022/09/28 00:13:00;;;;;;;1.20;1.00;;;8.00;99.90;;;;;;4203123;28;20461;-76
2022/09/28 00:15:02;;;;;;;2.10;1.00;;;8.00;99.90;;;;;;4202752;28;20491;-76
2022/09/28 00:17:07;;;;;;;2.67;1.10;;;7.90;99.90;;;;;;4218878;28;20481;-75
2022/09/28 00:19:09;;;;;;;1.40;1.20;;;7.90;99.90;;;;;;4221407;28;20460;-76
2022/09/28 00:21:15;;;;;;;1.40;1.20;;;7.90;99.90;;;;;;4217447;28;20448;-77
2022/09/28 00:23:17;;;;;;;2.27;1.10;;;7.90;99.90;;;;;;4199147;28;20889;-76
2022/09/28 00:25:20;;;;;;;1.30;1.20;;;7.90;99.90;;;;;;4203673;28;20492;-75
2022/09/28 00:27:22;;;;;;;1.60;1.10;;;7.80;99.90;;;;;;4217851;28;20484;-76
2022/09/28 00:29:26;;;;;;;1.47;1.20;;;7.80;99.90;;;;;;4219920;28;20495;-76
2022/09/28 00:31:31;;;;;;;1.40;1.27;;;7.80;99.90;;;;;;4220048;28;20470;-75
2022/09/28 00:33:33;;;;;;;2.43;1.43;;;7.90;99.90;;;;;;4219801;28;20492;-75
2022/09/28 00:35:35;;;;;;;1.83;1.40;;;7.80;99.90;;;;;;4218663;28;20547;-75
2022/09/28 00:37:38;;;;;;;1.73;1.33;;;7.80;99.90;;;;;;4221162;28;20482;-76
2022/09/28 00:39:41;;;;;;;2.40;1.50;;;7.80;99.90;;;;;;4217571;28;20510;-76
2022/09/28 00:41:43;;;;;;;3.03;1.30;;;7.90;99.90;;;;;;4218500;28;20456;-76
2022/09/28 00:43:45;;;;;;;1.10;1.00;;;7.80;99.90;;;;;;4216628;28;20453;-76
2022/09/28 00:45:52;;;;;;;1.50;1.30;;;7.90;99.90;;;;;;4208156;28;20552;-76
2022/09/28 00:47:59;;;;;;;1.77;1.30;;;7.90;99.90;;;;;;4221404;28;20462;-76
2022/09/28 00:50:04;;;;;;;1.60;1.10;;;7.80;99.90;;;;;;4221117;28;20473;-76
2022/09/28 00:52:10;;;;;;;1.73;1.10;;;7.80;99.90;;;;;;4203576;28;20464;-75
2022/09/28 00:54:15;;;;;;;2.43;1.37;;;7.80;99.90;;;;;;4202340;28;20595;-76
2022/09/28 00:56:23;;;;;;;2.33;1.10;;;7.80;99.90;;;;;;4222975;28;20472;-75
2022/09/28 00:58:29;;;;;;;3.27;1.40;;;8.00;99.90;;;;;;4201898;28;20510;-75
2022/09/28 01:00:32;;;;;;;1.63;1.33;;;7.80;99.90;;;;;;4220929;28;20535;-75
2022/09/28 01:02:34;;;;;;;2.20;1.40;;;7.80;99.90;;;;;;4223272;28;21008;-75
2022/09/28 01:04:36;;;;;;;2.57;1.37;;;7.80;99.90;;;;;;4216061;28;20922;-75
2022/09/28 01:06:39;;;;;;;1.40;1.20;;;7.80;99.90;;;;;;4217822;28;20946;-77
2022/09/28 01:08:43;;;;;;;1.40;1.00;;;7.80;99.90;;;;;;4216959;28;20456;-76
2022/09/28 01:10:47;;;;;;;2.03;1.10;;;7.80;99.90;;;;;;4204175;28;20537;-76
2022/09/28 01:12:49;;;;;;;2.50;1.20;;;7.80;99.90;;;;;;4198880;28;20461;-76
2022/09/28 01:14:52;;;;;;;2.47;1.30;;;7.80;99.90;;;;;;4201511;28;20481;-74
2022/09/28 01:17:01;;;;;;;3.00;1.60;;;7.80;99.90;;;;;;4217427;28;20506;-76
2022/09/28 01:19:24;;;;;;;1.43;1.00;;;7.80;99.90;;;;;;4220183;28;20522;-76
2022/09/28 01:21:27;;;;;;;2.07;1.27;;;7.70;99.90;;;;;;4202139;28;21112;-75
2022/09/28 01:23:53;;;;;;;2.60;1.40;;;7.80;99.90;;;;;;4199551;28;20993;-77
2022/09/28 01:26:24;;;;;;;1.70;1.30;;;7.70;99.90;;;;;;4216289;28;20493;-75
2022/09/28 01:28:29;;;;;;;1.97;1.30;;;7.70;99.90;;;;;;4184851;28;20484;-76
2022/09/28 01:30:38;;;;;;;2.13;1.40;;;7.70;99.90;;;;;;4198643;28;20470;-75
2022/09/28 01:32:50;;;;;;;3.77;2.37;;;7.70;99.90;;;;;;4202432;28;20845;-76
2022/09/28 01:34:57;;;;;;;1.57;1.23;;;7.70;99.90;;;;;;4221328;28;20987;-75
2022/09/28 01:37:04;;;;;;;1.43;1.20;;;7.70;99.90;;;;;;4219129;28;20825;-75
2022/09/28 01:39:10;;;;;;;2.00;1.20;;;7.70;99.90;;;;;;4218613;28;20954;-76
2022/09/28 01:41:16;;;;;;;1.57;1.30;;;7.60;99.90;;;;;;4198647;28;20545;-75
2022/09/28 01:43:22;;;;;;;2.13;1.50;;;7.70;99.90;;;;;;4202338;28;20529;-75
2022/09/28 01:45:29;;;;;;;2.00;1.40;;;7.60;99.90;;;;;;4202063;28;20465;-77
2022/09/28 01:47:36;;;;;;;1.60;1.30;;;7.60;99.90;;;;;;4219189;28;20501;-76
2022/09/28 01:49:42;;;;;;;2.20;1.17;;;7.60;99.90;;;;;;4197262;28;21068;-75
2022/09/28 01:51:50;;;;;;;1.83;1.00;;;7.60;99.90;;;;;;4218255;28;21102;-76
2022/09/28 01:53:59;;;;;;;1.70;1.03;;;7.60;99.90;;;;;;4219022;28;20466;-75
2022/09/28 01:56:07;;;;;;;1.23;0.93;;;7.50;99.90;;;;;;4205958;28;20461;-75
2022/09/28 01:58:14;;;;;;;1.57;1.10;;;7.50;99.90;;;;;;4216368;28;20922;-76
2022/09/28 02:00:19;;;;;;;2.37;1.20;;;7.50;99.90;;;;;;4220214;28;20543;-76
2022/09/28 02:02:28;;;;;;;1.90;1.00;;;7.50;99.90;;;;;;4222374;28;20457;-75
2022/09/28 02:04:35;;;;;;;1.53;1.00;;;7.50;99.90;;;;;;4219818;28;20456;-77
2022/09/28 02:06:44;;;;;;;1.50;1.03;;;7.40;99.90;;;;;;4201044;28;20449;-75
2022/09/28 02:08:52;;;;;;;0.83;0.83;;;7.40;99.90;;;;;;4221243;28;20495;-75
2022/09/28 02:11:00;;;;;;;1.17;0.90;;;7.40;99.90;;;;;;4197637;28;20488;-76
2022/09/28 02:13:07;;;;;;;1.77;0.93;;;7.40;99.90;;;;;;4224865;28;20454;-76
2022/09/28 02:15:14;;;;;;;1.13;0.93;;;7.40;99.90;;;;;;4223024;28;20477;-76
2022/09/28 02:17:16;;;;;;;1.20;0.90;;;7.40;99.90;;;;;;4224500;28;20468;-75
2022/09/28 02:19:23;;;;;;;1.63;1.10;;;7.30;99.90;;;;;;4230945;28;20462;-75
2022/09/28 02:21:28;;;;;;;2.33;0.80;;;7.30;99.90;;;;;;4224702;28;20540;-74
2022/09/28 02:23:32;;;;;;;1.70;1.10;;;7.30;99.90;;;;;;4228194;28;20953;-76
2022/09/28 02:25:40;;;;;;;1.60;1.13;;;7.30;99.90;;;;;;4223996;28;20485;-77
2022/09/28 02:27:52;;;;;;;1.80;1.10;;;7.30;99.90;;;;;;4219516;28;20935;-76
2022/09/28 02:29:54;;;;;;;1.30;0.90;;;7.20;99.90;;;;;;4217696;28;20499;-75
2022/09/28 02:31:56;;;;;;;2.00;1.17;;;7.20;99.90;;;;;;4216938;28;20465;-75
2022/09/28 02:33:58;;;;;;;1.37;1.00;;;7.20;99.90;;;;;;4202020;28;20552;-76
2022/09/28 02:36:03;;;;;;;1.37;0.90;;;7.10;99.90;;;;;;4220017;28;20546;-76
2022/09/28 02:38:05;;;;;;;1.27;0.80;;;7.20;99.90;;;;;;4200086;28;20473;-76
2022/09/28 02:40:13;;;;;;;1.20;0.90;;;7.10;99.90;;;;;;4217285;28;20829;-76
2022/09/28 02:42:20;;;;;;;1.73;1.00;;;7.10;99.90;;;;;;4213671;28;20450;-75
2022/09/28 02:44:38;;;;;;;1.50;1.00;;;7.20;99.90;;;;;;4217331;28;20450;-76
2022/09/28 02:46:47;;;;;;;1.40;0.97;;;7.10;99.90;;;;;;4215555;28;20535;-75
2022/09/28 02:49:03;;;;;;;2.80;1.53;;;7.10;99.90;;;;;;4217929;28;20457;-76
2022/09/28 02:51:18;;;;;;;1.83;1.10;;;7.00;99.90;;;;;;4215293;28;20552;-76
2022/09/28 02:53:44;;;;;;;1.57;1.00;;;7.00;99.90;;;;;;4218616;28;20459;-76
2022/09/28 02:55:59;;;;;;;1.93;1.00;;;7.00;99.90;;;;;;4185982;28;20498;-76
2022/09/28 02:58:18;;;;;;;3.03;1.40;;;7.00;99.90;;;;;;4215458;28;20473;-75
2022/09/28 03:00:22;;;;;;;2.17;1.27;;;6.90;99.90;;;;;;4199750;28;21321;-77
2022/09/28 03:02:30;;;;;;;1.83;1.03;;;6.90;99.90;;;;;;4214072;28;20459;-75
2022/09/28 03:04:42;;;;;;;1.50;0.97;;;6.90;99.90;;;;;;4216622;28;20451;-76
2022/09/28 03:06:51;;;;;;;1.80;1.13;;;6.90;99.90;;;;;;4216666;28;20969;-74
2022/09/28 03:09:00;;;;;;;1.33;0.90;;;6.90;99.90;;;;;;4218180;28;20455;-77
2022/09/28 03:11:07;;;;;;;2.13;1.20;;;6.90;99.90;;;;;;4215754;28;20613;-75
2022/09/28 03:13:10;;;;;;;1.87;1.27;;;6.90;99.90;;;;;;4208060;28;20555;-77
2022/09/28 03:15:19;;;;;;;2.00;0.90;;;6.90;99.90;;;;;;4214605;28;20493;-75
2022/09/28 03:17:21;;;;;;;1.60;1.10;;;6.90;99.90;;;;;;4220041;28;20509;-76
2022/09/28 03:19:26;;;;;;;1.03;0.90;;;6.90;99.90;;;;;;4199872;28;20449;-74
2022/09/28 03:21:28;;;;;;;1.47;1.10;;;6.80;99.90;;;;;;4218987;28;20460;-76
2022/09/28 03:23:31;;;;;;;0.93;0.73;;;6.90;99.90;;;;;;4221460;28;20459;-75
2022/09/28 03:25:33;;;;;;;2.50;1.20;;;6.90;99.90;;;;;;4217761;28;20540;-76
2022/09/28 03:27:35;;;;;;;1.40;1.10;;;6.90;99.90;;;;;;4222282;28;20565;-74
2022/09/28 03:29:39;;;;;;;1.13;0.90;;;6.90;99.90;;;;;;4219298;28;20453;-76
2022/09/28 03:31:42;;;;;;;1.20;0.80;;;6.90;99.90;;;;;;4208497;28;20455;-75
2022/09/28 03:33:44;;;;;;;1.17;0.93;;;7.00;99.90;;;;;;4207045;28;20476;-77
2022/09/28 03:35:47;;;;;;;1.60;0.97;;;7.00;99.90;;;;;;4198812;28;20588;-76
2022/09/28 03:37:49;;;;;;;1.50;1.00;;;7.00;99.90;;;;;;4217198;28;21255;-75
2022/09/28 03:39:52;;;;;;;1.43;1.10;;;6.90;99.90;;;;;;4200732;28;20455;-75
2022/09/28 03:41:54;;;;;;;0.70;0.70;;;7.00;99.90;;;;;;4217490;28;21040;-76
2022/09/28 03:43:56;;;;;;;1.70;0.93;;;6.90;99.90;;;;;;4217898;28;20547;-75
2022/09/28 03:45:59;;;;;;;2.07;0.90;;;6.90;99.90;;;;;;4220077;28;20968;-76
2022/09/28 03:48:01;;;;;;;1.87;1.13;;;7.00;99.90;;;;;;4201375;28;20469;-75
2022/09/28 03:50:03;;;;;;;1.10;0.97;;;7.00;99.90;;;;;;4224476;28;20444;-75
2022/09/28 03:52:05;;;;;;;2.57;1.00;;;7.00;99.90;;;;;;4219710;28;20468;-75
2022/09/28 03:54:07;;;;;;;2.77;1.50;;;7.00;99.90;;;;;;4221737;28;20462;-76
2022/09/28 03:56:14;;;;;;;1.70;1.30;;;7.00;99.90;;;;;;4218607;28;20486;-77
2022/09/28 03:58:17;;;;;;;1.77;1.20;;;7.00;99.90;;;;;;4217966;28;20505;-76
2022/09/28 04:00:19;;;;;;;3.60;1.50;;;7.00;99.90;;;;;;4217700;28;20460;-76
2022/09/28 04:02:21;;;;;;;2.10;1.17;;;7.00;99.90;;;;;;4219673;28;20484;-76
2022/09/28 04:04:23;;;;;;;1.27;1.13;;;7.00;99.90;;;;;;4221650;28;20486;-75
2022/09/28 04:06:26;;;;;;;1.07;0.90;;;7.00;99.90;;;;;;4223265;28;20491;-75
2022/09/28 04:08:28;;;;;;;1.17;0.90;;;7.00;99.90;;;;;;4204608;28;20458;-76
2022/09/28 04:10:30;;;;;;;1.00;0.90;;;7.10;99.90;;;;;;4200846;28;20592;-76
2022/09/28 04:12:34;;;;;;;1.60;1.20;;;7.00;99.90;;;;;;4199580;28;20551;-75
2022/09/28 04:14:35;;;;;;;2.43;0.97;;;7.00;99.90;;;;;;4220337;28;20495;-75
2022/09/28 04:16:38;;;;;;;1.30;1.10;;;7.00;99.90;;;;;;4202762;28;20518;-76
2022/09/28 04:18:40;;;;;;;2.60;1.07;;;7.10;99.90;;;;;;4201975;28;20871;-76
2022/09/28 04:20:44;;;;;;;1.80;1.10;;;7.10;99.90;;;;;;4222806;28;20551;-75
2022/09/28 04:22:46;;;;;;;2.97;1.17;;;7.00;99.90;;;;;;4202544;28;20477;-76
2022/09/28 04:24:48;;;;;;;3.30;1.53;;;7.10;99.90;;;;;;4218789;28;20464;-75
2022/09/28 04:26:50;;;;;;;2.53;1.40;;;7.10;99.90;;;;;;4220657;28;20478;-76
2022/09/28 04:31:16;;;;;;;2.03;1.30;;;7.10;99.90;;;;;;4218734;28;20818;-76
2022/09/28 04:33:18;;;;;;;4.30;2.00;;;7.10;99.90;;;;;;4221230;28;20914;-77
2022/09/28 04:35:20;;;;;;;2.70;1.50;;;7.10;99.90;;;;;;4219927;28;21158;-76
2022/09/28 04:37:22;;;;;;;2.83;1.83;;;7.10;99.90;;;;;;4203625;28;20476;-75
2022/09/28 04:39:24;;;;;;;3.43;1.60;;;7.10;99.90;;;;;;4204051;28;20460;-76
2022/09/28 04:41:29;;;;;;;2.80;1.70;;;7.10;99.90;;;;;;4219946;28;20539;-77
2022/09/28 04:43:31;;;;;;;4.13;1.60;;;7.10;99.90;;;;;;4219859;28;20472;-76
2022/09/28 04:45:34;;;;;;;2.57;1.57;;;7.10;99.90;;;;;;4220864;28;20479;-76
2022/09/28 04:47:36;;;;;;;2.90;1.60;;;7.10;99.90;;;;;;4222632;28;20863;-76
2022/09/28 04:49:38;;;;;;;1.70;1.40;;;7.10;99.90;;;;;;4220786;28;21312;-75
2022/09/28 04:51:40;;;;;;;2.93;1.80;;;7.10;99.90;;;;;;4203691;28;21285;-76
2022/09/28 04:53:42;;;;;;;3.30;1.93;;;7.10;99.90;;;;;;4222531;28;20446;-76
2022/09/28 04:55:43;;;;;;;3.97;2.27;;;7.20;99.90;;;;;;4222549;28;20563;-76
2022/09/28 04:57:45;;;;;;;3.97;1.77;;;7.10;99.90;;;;;;4222311;28;20489;-75
2022/09/28 04:59:47;;;;;;;3.67;1.63;;;7.10;99.90;;;;;;4223766;28;20531;-76
2022/09/28 05:01:52;;;;;;;3.90;1.93;;;7.10;99.90;;;;;;4236974;28;20527;-74
2022/09/28 05:03:55;;;;;;;3.30;2.00;;;7.20;99.90;;;;;;4238141;28;20438;-74
2022/09/28 05:05:56;;;;;;;3.80;2.20;;;7.20;99.90;;;;;;4240435;28;20436;-74
2022/09/28 05:07:59;;;;;;;3.60;1.70;;;7.20;99.90;;;;;;4240510;28;20475;-74
2022/09/28 05:10:00;;;;;;;2.73;1.80;;;7.20;99.90;;;;;;4238979;28;20487;-77
2022/09/28 05:12:02;;;;;;;1.93;1.47;;;7.20;99.90;;;;;;4222107;28;20446;-76
2022/09/28 05:14:04;;;;;;;2.00;1.50;;;7.20;99.90;;;;;;4236298;28;20777;-77
2022/09/28 05:16:06;;;;;;;2.57;1.33;;;7.20;99.90;;;;;;4226670;28;20486;-76
2022/09/28 05:18:09;;;;;;;1.93;1.40;;;7.20;99.90;;;;;;4225753;28;20472;-76
2022/09/28 05:20:12;;;;;;;3.60;1.73;;;7.30;99.90;;;;;;4221244;28;20454;-75
2022/09/28 05:22:14;;;;;;;3.07;1.80;;;7.30;99.90;;;;;;4220488;28;20482;-75
2022/09/28 05:24:16;;;;;;;3.67;2.13;;;7.30;99.90;;;;;;4220569;28;20562;-75
2022/09/28 05:26:19;;;;;;;3.50;1.90;;;7.30;99.90;;;;;;4217652;28;20446;-75
2022/09/28 05:28:25;;;;;;;2.87;1.80;;;7.40;99.90;;;;;;4221550;28;20565;-75
2022/09/28 05:30:27;;;;;;;3.77;1.90;;;7.30;99.90;;;;;;4225491;27;20454;-75
2022/09/28 05:32:29;;;;;;;4.10;1.70;;;7.30;99.90;;;;;;4225466;28;20956;-75
2022/09/28 05:34:33;;;;;;;2.43;1.50;;;7.40;99.90;;;;;;4219816;28;21170;-75
2022/09/28 05:36:34;;;;;;;3.50;1.93;;;7.40;99.90;;;;;;4219286;28;20492;-75
2022/09/28 05:38:36;;;;;;;2.40;1.70;;;7.40;99.90;;;;;;4217129;28;20557;-75
2022/09/28 05:40:38;;;;;;;3.10;1.70;;;7.40;99.90;;;;;;4218959;28;20806;-76
2022/09/28 05:42:40;;;;;;;3.37;1.60;;;7.40;99.90;;;;;;4218382;28;20549;-75
2022/09/28 05:44:42;;;;;;;3.37;1.93;;;7.40;99.90;;;;;;4220340;28;20488;-75
2022/09/28 05:46:44;;;;;;;3.47;1.67;;;7.40;99.90;;;;;;4223356;28;20581;-77
2022/09/28 05:48:46;;;;;;;3.33;1.93;;;7.50;99.90;;;;;;4206129;28;20537;-75
2022/09/28 05:50:52;;;;;;;5.40;2.13;;;7.50;99.90;;;;;;4224852;28;20978;-74
2022/09/28 05:53:01;;;;;;;2.10;1.50;;;7.50;99.90;;;;;;4200069;28;20936;-77
2022/09/28 05:55:03;;;;;;;4.07;1.70;;;7.50;99.90;;;;;;4207936;28;21010;-73
2022/09/28 05:57:05;;;;;;;2.50;1.70;;;7.50;99.90;;;;;;4219717;27;20489;-74
2022/09/28 05:59:08;;;;;;;3.17;1.93;;;7.60;99.90;;;;;;4200525;28;20562;-74
2022/09/28 06:01:10;;;;;;;3.27;1.70;;;7.60;99.90;;;;;;4206670;28;20894;-75
2022/09/28 06:03:15;;;;;;;2.47;1.33;;;7.60;99.90;;;;;;4217211;27;20459;-74
2022/09/28 06:05:17;;;;;;;1.93;1.60;;;7.60;99.90;;;;;;4217968;28;21027;-77
2022/09/28 06:07:22;;;;;;;2.70;1.63;;;7.60;99.90;;;;;;4220133;28;20472;-79
2022/09/28 06:09:24;;;;;;;2.43;1.50;;;7.60;99.90;;;;;;4206147;28;20447;-73
2022/09/28 06:11:26;;;;;;;2.20;1.50;;;7.70;99.90;;;;;;4223689;28;20439;-76
2022/09/28 06:13:28;;;;;;;3.80;1.90;;;7.70;99.90;;;;;;4217364;28;20669;-75
2022/09/28 06:15:32;;;;;;;2.50;1.70;;;7.70;99.90;;;;;;4220656;28;20447;-78
2022/09/28 06:17:34;;;;;;;2.67;1.80;;;7.70;99.90;;;;;;4217637;28;20476;-73
2022/09/28 06:19:36;;;;;;;4.00;2.30;;;7.80;99.90;;;;;;4219629;28;20453;-76
2022/09/28 06:21:38;;;;;;;2.90;1.77;;;7.70;99.90;;;;;;4222683;28;20445;-76
2022/09/28 06:23:41;;;;;;;2.53;1.70;;;7.70;99.90;;;;;;4200774;28;20950;-75
2022/09/28 06:25:43;;;;;;;2.72;2.00;;;7.80;99.90;;;;;;4196412;28;21075;-76
2022/09/28 06:27:54;;;;;;;3.27;1.83;;;7.80;99.90;;;;;;4221523;28;20239;-73
2022/09/28 06:29:55;;;;;;;4.03;2.40;;;7.80;99.90;;;;;;4219437;28;20481;-84
2022/09/28 06:31:57;;;;;;;2.97;1.90;;;7.80;99.90;;;;;;4204241;28;20994;-74
2022/09/28 06:34:00;;;;;;;2.10;1.67;;;7.80;99.90;;;;;;4216678;28;21194;-73
2022/09/28 06:36:02;;;;;;;3.00;2.40;;;7.80;99.90;;;;;;4205022;28;21027;-75
2022/09/28 06:38:04;;;;;;;3.50;2.40;;;7.80;99.90;;;;;;4219363;28;20896;-73
2022/09/28 06:40:09;;;;;;;2.00;1.60;;;7.80;99.90;;;;;;4201184;28;20486;-79
2022/09/28 06:42:11;;;;;;;5.40;1.80;;;7.80;99.90;;;;;;4225231;28;20443;-77
2022/09/28 06:44:12;;;;;;;4.40;1.90;;;7.90;99.90;;;;;;4217682;28;20463;-74
2022/09/28 06:46:14;;;;;;;2.17;1.80;;;7.80;99.90;;;;;;4211792;28;20450;-73
2022/09/28 06:48:16;;;;;;;3.00;2.00;;;7.80;99.90;;;;;;4213370;28;20505;-75
2022/09/28 06:50:18;;;;;;;3.30;2.13;;;7.80;99.90;;;;;;4219412;28;20872;-76
2022/09/28 06:52:20;;;;;;;2.97;2.00;;;7.80;99.90;;;;;;4201502;28;20853;-73
2022/09/28 06:54:24;;;;;;;4.67;2.37;;;7.80;99.90;;;;;;4224481;28;20962;-75
2022/09/28 06:56:27;;;;;;;4.17;2.93;;;7.80;99.90;;;;;;4214802;28;20507;-80
2022/09/28 06:58:30;;;;;;;3.80;2.37;;;7.80;99.90;;;;;;4219240;28;20476;-72
2022/09/28 07:00:35;;;;;;;5.00;2.97;;;7.80;99.90;;;;;;4219988;28;20539;-73
2022/09/28 07:02:37;;;;;;;3.50;2.50;;;7.80;99.90;;;;;;4220468;28;20445;-77
2022/09/28 07:04:41;;;;;;;3.47;2.40;;;7.80;99.90;;;;;;4216695;28;20497;-72
2022/09/28 07:06:47;;;;;;;3.00;2.20;;;7.90;99.90;;;;;;4222223;28;20457;-72
2022/09/28 07:08:49;;;;;;;5.13;2.33;;;7.90;99.90;;;;;;4219723;28;20460;-73
2022/09/28 07:10:55;;;;;;;3.10;1.90;;;7.80;99.90;;;;;;4219887;28;21085;-73
2022/09/28 07:13:01;;;;;;;3.20;2.60;;;7.80;99.90;;;;;;4216331;28;20455;-73
2022/09/28 07:15:03;;;;;;;3.37;2.30;;;7.90;99.90;;;;;;4218072;28;20449;-76
2022/09/28 07:17:07;;;;;;;2.97;2.43;;;7.90;99.90;;;;;;4219538;28;20478;-77
2022/09/28 07:19:09;;;;;;;2.93;2.30;;;7.90;99.90;;;;;;4208045;28;21035;-77
2022/09/28 07:21:11;;;;;;;4.17;2.37;;;7.90;99.90;;;;;;4219164;28;20969;-75
2022/09/28 07:23:14;;;;;;;4.10;2.50;;;7.90;99.90;;;;;;4198786;28;20480;-79
2022/09/28 07:25:16;;;;;;;3.07;2.57;;;8.00;99.90;;;;;;4206954;28;20496;-75
2022/09/28 07:27:18;;;;;;;3.73;2.23;;;7.90;99.90;;;;;;4202069;28;20478;-75
2022/09/28 07:29:22;;;;;;;5.30;2.40;;;8.00;99.90;;;;;;4197634;28;20455;-73
2022/09/28 07:31:25;;;;;;;3.17;2.20;;;8.00;99.90;;;;;;4202746;28;21107;-72
2022/09/28 07:33:31;;;;;;;3.00;2.10;;;8.00;99.90;;;;;;4222184;28;21045;-73
2022/09/28 07:35:34;;;;;;;3.70;2.20;;;8.00;99.90;;;;;;4222588;28;20485;-74
2022/09/28 07:37:36;;;;;;;3.70;2.50;;;8.00;99.90;;;;;;4223898;28;20488;-73
2022/09/28 07:41:53;;;;;;;3.43;2.40;;;8.00;99.90;;;;;;4201631;28;20931;-72
2022/09/28 07:43:55;;;;;;;5.20;2.80;;;8.10;99.90;;;;;;4205872;28;20985;-75
2022/09/28 07:46:01;;;;;;;3.63;2.67;;;8.10;99.90;;;;;;4220630;28;20825;-75
2022/09/28 07:48:03;;;;;;;4.90;2.80;;;8.10;99.90;;;;;;4199564;28;20496;-73
2022/09/28 07:50:06;;;;;;;3.63;2.70;;;8.10;99.90;;;;;;4224605;28;20466;-77
2022/09/28 07:52:11;;;;;;;3.17;2.33;;;8.10;99.90;;;;;;4224441;28;20467;-76
2022/09/28 07:54:13;;;;;;;6.93;2.97;;;8.10;99.90;;;;;;4225881;28;20952;-78
2022/09/28 07:56:17;;;;;;;3.83;3.00;;;8.10;99.90;;;;;;4210639;28;20479;-76
2022/09/28 07:58:20;;;;;;;3.73;3.00;;;8.20;99.90;;;;;;4229884;28;20693;-71
2022/09/28 08:00:25;;;;;;;4.43;2.80;;;8.10;99.90;;;;;;4215064;28;20450;-76
2022/09/28 08:02:31;;;;;;;5.60;3.37;;;8.10;99.90;;;;;;4213855;28;20446;-73
2022/09/28 08:04:32;;;;;;;5.67;3.00;;;8.20;99.90;;;;;;4223092;28;20822;-74
2022/09/28 08:06:34;;;;;;;6.23;3.47;;;8.20;99.90;;;;;;4220921;28;20478;-73
2022/09/28 08:08:37;;;;;;;4.97;3.13;;;8.20;99.90;;;;;;4202818;28;20454;-73
2022/09/28 08:10:39;;;;;;;6.23;3.30;;;8.20;99.90;;;;;;4202811;28;20455;-73
2022/09/28 08:12:43;;;;;;;3.83;3.07;;;8.20;99.90;;;;;;4228309;28;20450;-73
2022/09/28 08:14:45;;;;;;;5.87;4.10;;;8.20;99.90;;;;;;4222784;28;20496;-75
2022/09/28 08:16:47;;;;;;;11.10;5.70;;;8.20;99.90;;;;;;4221533;28;20491;-76
2022/09/28 08:18:50;;;;;;;8.03;4.80;;;8.20;99.90;;;;;;4218301;28;20454;-73
2022/09/28 08:23:12;;;;;;;5.37;3.47;;;8.20;99.90;;;;;;4226111;28;20817;-74
2022/09/28 08:25:14;;;;;;;5.77;2.93;;;8.20;99.90;;;;;;4210522;28;20494;-75
2022/09/28 08:27:17;;;;;;;4.53;2.70;;;8.20;99.90;;;;;;4221459;28;20993;-76
2022/09/28 08:29:19;;;;;;;4.93;3.23;;;8.10;99.90;;;;;;4205710;28;20455;-77
2022/09/28 08:31:21;;;;;;;4.67;3.03;;;8.10;99.90;;;;;;4223940;28;20449;-74
2022/09/28 08:33:22;;;;;;;3.10;2.23;;;8.20;99.90;;;;;;4227001;28;20861;-75
2022/09/28 08:35:26;;;;;;;4.40;2.00;;;8.10;99.90;;;;;;4220441;28;21067;-74
2022/09/28 08:37:28;;;;;;;3.67;1.67;;;8.10;99.90;;;;;;4204080;28;20490;-76
2022/09/28 08:39:30;;;;;;;3.33;1.70;;;8.00;99.90;;;;;;4212545;28;20458;-76
2022/09/28 08:41:39;;;;;;;1.60;1.30;;;8.00;99.90;;;;;;4223144;28;20457;-74
2022/09/28 08:44:04;;;;;;;1.50;1.20;;;8.00;99.90;;;;;;4206078;28;20489;-73
2022/09/28 08:46:07;;;;;;;3.53;1.50;;;8.00;99.90;;;;;;4205423;28;20465;-74
2022/09/28 08:50:49;;;;;;;2.10;1.00;;;7.90;99.90;;;;;;4205476;28;20447;-75
2022/09/28 08:52:56;;;;;;;2.53;1.00;;;7.90;99.90;;;;;;4206327;28;20450;-73
2022/09/28 08:55:04;;;;;;;1.97;1.23;;;7.90;99.90;;;;;;4224787;28;20458;-73
2022/09/28 08:57:12;;;;;;;1.30;1.20;;;7.90;99.90;;;;;;4221709;28;20977;-73
2022/09/28 08:59:18;;;;;;;2.03;0.90;;;7.90;99.90;;;;;;4231241;28;20456;-74
2022/09/28 09:01:23;;;;;;;1.17;0.80;;;7.90;99.90;;;;;;4223732;28;20468;-78
2022/09/28 09:03:30;;;;;;;0.80;0.70;;;7.90;99.90;;;;;;4217907;28;20449;-77
2022/09/28 09:05:48;;;;;;;1.17;0.80;;;7.90;99.90;;;;;;4219074;28;20461;-74
2022/09/28 09:08:15;;;;;;;1.40;0.77;;;7.90;99.90;;;;;;4224939;28;21339;-75
2022/09/28 09:10:38;;;;;;;0.60;0.60;;;8.00;99.90;;;;;;4203034;28;20512;-74
2022/09/28 09:12:49;;;;;;;1.53;0.80;;;8.00;99.90;;;;;;4225674;28;20450;-74
2022/09/28 09:15:17;;;;;;;0.87;0.70;;;8.10;99.90;;;;;;4209830;28;21007;-74
2022/09/28 09:17:27;;;;;;;1.13;0.83;;;8.10;99.90;;;;;;4226246;28;20492;-74
2022/09/28 09:19:37;;;;;;;0.93;0.63;;;8.10;99.90;;;;;;4225614;28;20458;-75
2022/09/28 09:21:53;;;;;;;0.83;0.77;;;8.10;99.90;;;;;;4206486;28;20831;-74
2022/09/28 09:23:56;;;;;;;1.63;0.70;;;8.10;99.90;;;;;;4206974;28;20482;-73
2022/09/28 09:26:08;;;;;;;0.60;0.60;;;8.20;99.90;;;;;;4219343;28;20550;-73
2022/09/28 09:28:45;;;;;;;0.80;0.70;;;8.20;99.90;;;;;;4206804;28;20896;-75
2022/09/28 09:31:02;;;;;;;0.87;0.50;;;8.30;99.90;;;;;;4193081;28;20461;-72
2022/09/28 09:33:22;;;;;;;1.23;0.90;;;8.30;99.90;;;;;;4208823;28;20467;-78
2022/09/28 09:35:43;;;;;;;0.63;0.60;;;8.40;99.90;;;;;;4223626;28;20544;-78
2022/09/28 09:38:01;;;;;;;1.20;0.67;;;8.40;99.90;;;;;;4221053;28;20548;-73
2022/09/28 09:40:17;;;;;;;0.40;0.40;;;8.50;99.90;;;;;;4204522;28;20933;-73
2022/09/28 09:42:34;;;;;;;0.80;0.53;;;8.50;99.90;;;;;;4204141;28;20543;-76
2022/09/28 09:44:52;;;;;;;2.10;0.70;;;8.60;99.90;;;;;;4208862;28;20450;-75
2022/09/28 09:46:57;;;;;;;1.23;0.70;;;8.70;99.90;;;;;;4222290;28;20578;-75
2022/09/28 09:49:04;;;;;;;0.73;0.60;;;8.80;99.90;;;;;;4209680;28;20951;-77
2022/09/28 09:51:16;;;;;;;0.97;0.63;;;8.70;99.90;;;;;;4204575;28;20461;-77
2022/09/28 09:53:30;;;;;;;0.63;0.50;;;8.70;99.90;;;;;;4224723;28;20957;-75
2022/09/28 09:55:40;;;;;;;1.00;0.60;;;8.70;99.90;;;;;;4228232;28;20529;-76
2022/09/28 09:57:48;;;;;;;1.30;0.60;;;8.70;99.90;;;;;;4209203;28;20479;-74
2022/09/28 09:59:51;;;;;;;0.70;0.60;;;8.80;99.90;;;;;;4205351;28;20526;-74
2022/09/28 10:01:55;;;;;;;0.80;0.70;;;8.80;99.90;;;;;;4224225;28;20864;-71
2022/09/28 10:03:58;;;;;;;0.83;0.50;;;8.90;99.90;;;;;;4222791;28;20482;-74
2022/09/28 10:06:08;;;;;;;1.07;0.63;;;8.90;99.90;;;;;;4208976;28;20462;-73
2022/09/28 10:08:15;;;;;;;2.20;0.63;;;9.00;99.90;;;;;;4221060;28;20584;-72
2022/09/28 10:10:24;;;;;;;1.83;0.60;;;9.00;99.90;;;;;;4205617;28;20205;-72
2022/09/28 10:12:29;;;;;;;0.80;0.67;;;9.10;99.90;;;;;;4217560;28;20571;-72
2022/09/28 10:14:31;;;;;;;1.60;0.70;;;9.10;99.90;;;;;;4222026;28;20453;-73
2022/09/28 10:16:34;;;;;;;1.77;0.80;;;9.20;99.90;;;;;;4221217;28;20200;-74
2022/09/28 10:18:37;;;;;;;3.40;1.70;;;9.20;99.90;;;;;;4220728;28;20299;-76
2022/09/28 10:20:42;;;;;;;2.60;1.50;;;9.20;99.90;;;;;;4225857;28;20288;-72
2022/09/28 10:22:44;;;;;;;2.77;1.50;;;9.20;99.90;;;;;;4209973;28;20269;-72
2022/09/28 10:24:49;;;;;;;2.30;1.57;;;9.20;99.90;;;;;;4221898;28;20204;-72
2022/09/28 10:26:55;;;;;;;3.77;1.50;;;9.10;99.90;;;;;;4204753;28;20229;-74
2022/09/28 10:29:02;;;;;;;3.73;1.50;;;9.20;99.90;;;;;;4206812;28;20216;-75
2022/09/28 10:31:35;;;;;;;2.97;1.20;;;9.10;99.90;;;;;;4222877;28;20208;-72
2022/09/28 10:33:39;;;;;;;2.47;1.10;;;9.10;99.90;;;;;;4215689;28;20201;-72
2022/09/28 10:35:43;;;;;;;1.10;0.70;;;9.00;99.90;;;;;;4211202;28;20512;-75
2022/09/28 10:37:53;;;;;;;3.67;0.90;;;8.90;99.90;;;;;;4205482;28;20252;-78
2022/09/28 10:39:56;;;;;;;0.60;0.60;;;8.80;99.90;;;;;;4219681;28;20462;-75
2022/09/28 10:42:03;;;;;;;1.10;0.60;;;8.70;99.90;;;;;;4232314;28;20486;-75
2022/09/28 10:44:07;;;;;;;1.10;0.60;;;8.70;99.90;;;;;;4235940;28;20457;-76
2022/09/28 10:46:12;;;;;;;1.20;0.80;;;8.70;99.90;;;;;;4210853;28;20455;-74
2022/09/28 10:48:20;;;;;;;1.43;0.90;;;8.80;99.90;;;;;;4239040;28;20491;-77
2022/09/28 10:50:25;;;;;;;1.97;1.03;;;8.70;99.90;;;;;;4239233;28;20450;-73
2022/09/28 10:52:36;;;;;;;1.13;0.90;;;8.80;99.90;;;;;;4243698;28;20435;-77
2022/09/28 10:54:42;;;;;;;6.10;2.60;;;8.80;99.90;;;;;;4236886;28;20434;-78
2022/09/28 10:56:45;;;;;;;7.87;3.50;;;8.80;99.90;;;;;;4236098;28;20483;-73
2022/09/28 10:58:50;;;;;;;6.20;2.97;;;8.80;99.90;;;;;;4224397;28;20513;-76
2022/09/28 11:00:58;;;;;;;5.60;2.50;;;8.70;99.90;;;;;;4220788;28;20459;-75
2022/09/28 11:03:01;;;;;;;5.57;2.07;;;8.80;99.90;;;;;;4224298;28;20957;-74
2022/09/28 11:05:06;;;;;;;2.33;1.47;;;8.80;99.90;;;;;;4208247;28;20451;-74
2022/09/28 11:07:16;;;;;;;2.47;1.30;;;8.90;99.90;;;;;;4219415;28;20474;-74
2022/09/28 11:09:26;;;;;;;2.27;1.20;;;8.90;99.90;;;;;;4224294;28;20472;-74
2022/09/28 11:11:30;;;;;;;1.90;1.30;;;8.80;99.90;;;;;;4207664;28;20459;-75